sensor_id;sensor_type;location;lat;lon;timestamp;temperature;humidity
32640;DHT22;19049;52.524;11.468;2023-05-10T00:00:13;14.10;71.10
32640;DHT22;19049;52.524;11.468;2023-05-10T00:02:39;13.90;61.20
32640;DHT22;19049;52.524;11.468;2023-05-10T00:05:05;13.90;59.20
32640;DHT22;19049;52.524;11.468;2023-05-10T00:07:31;13.00;65.00
32640;DHT22;19049;52.524;11.468;2023-05-10T00:09:56;13.80;59.60
32640;DHT22;19049;52.524;11.468;2023-05-10T00:14:48;12.90;66.50
32640;DHT22;19049;52.524;11.468;2023-05-10T00:19:39;13.10;67.10
32640;DHT22;19049;52.524;11.468;2023-05-10T00:24:31;13.70;63.10
32640;DHT22;19049;52.524;11.468;2023-05-10T00:26:57;13.70;66.90
32640;DHT22;19049;52.524;11.468;2023-05-10T00:31:49;13.00;53.90
32640;DHT22;19049;52.524;11.468;2023-05-10T00:34:15;12.80;67.70
32640;DHT22;19049;52.524;11.468;2023-05-10T00:39:07;13.20;56.40
32640;DHT22;19049;52.524;11.468;2023-05-10T00:41:33;12.00;66.50
32640;DHT22;19049;52.524;11.468;2023-05-10T00:48:52;13.40;67.40
32640;DHT22;19049;52.524;11.468;2023-05-10T00:51:18;12.50;66.80
32640;DHT22;19049;52.524;11.468;2023-05-10T00:53:46;12.80;65.70
32640;DHT22;19049;52.524;11.468;2023-05-10T00:56:13;13.30;63.40
32640;DHT22;19049;52.524;11.468;2023-05-10T00:58:39;12.80;58.70
32640;DHT22;19049;52.524;11.468;2023-05-10T01:01:06;12.80;53.60
32640;DHT22;19049;52.524;11.468;2023-05-10T01:03:32;12.80;53.50
32640;DHT22;19049;52.524;11.468;2023-05-10T01:05:58;12.70;68.50
32640;DHT22;19049;52.524;11.468;2023-05-10T01:08:24;12.70;53.80
32640;DHT22;19049;52.524;11.468;2023-05-10T01:10:51;12.40;69.90
32640;DHT22;19049;52.524;11.468;2023-05-10T01:15:55;12.20;69.70
32640;DHT22;19049;52.524;11.468;2023-05-10T01:18:21;12.30;57.70
32640;DHT22;19049;52.524;11.468;2023-05-10T01:20:48;13.00;57.50
32640;DHT22;19049;52.524;11.468;2023-05-10T01:23:42;12.00;70.30
32640;DHT22;19049;52.524;11.468;2023-05-10T01:32:24;12.60;55.30
32640;DHT22;19049;52.524;11.468;2023-05-10T01:37:42;12.20;56.40
32640;DHT22;19049;52.524;11.468;2023-05-10T01:43:16;12.50;55.10
32640;DHT22;19049;52.524;11.468;2023-05-10T01:48:19;12.50;55.00
32640;DHT22;19049;52.524;11.468;2023-05-10T01:50:46;11.70;70.00
32640;DHT22;19049;52.524;11.468;2023-05-10T01:53:18;12.90;70.50
32640;DHT22;19049;52.524;11.468;2023-05-10T01:55:51;12.40;55.00
32640;DHT22;19049;52.524;11.468;2023-05-10T01:58:21;12.30;61.70
32640;DHT22;19049;52.524;11.468;2023-05-10T02:00:49;12.30;55.30
32640;DHT22;19049;52.524;11.468;2023-05-10T02:03:16;12.80;71.50
32640;DHT22;19049;52.524;11.468;2023-05-10T02:05:44;12.50;55.30
32640;DHT22;19049;52.524;11.468;2023-05-10T02:08:11;12.30;55.50
32640;DHT22;19049;52.524;11.468;2023-05-10T02:10:39;12.10;57.90
32640;DHT22;19049;52.524;11.468;2023-05-10T02:13:07;12.20;56.70
32640;DHT22;19049;52.524;11.468;2023-05-10T02:15:33;12.80;58.90
32640;DHT22;19049;52.524;11.468;2023-05-10T02:18:00;12.90;72.80
32640;DHT22;19049;52.524;11.468;2023-05-10T02:22:55;12.60;72.20
32640;DHT22;19049;52.524;11.468;2023-05-10T02:25:22;12.50;63.70
32640;DHT22;19049;52.524;11.468;2023-05-10T02:27:48;12.20;56.80
32640;DHT22;19049;52.524;11.468;2023-05-10T02:30:16;12.10;69.50
32640;DHT22;19049;52.524;11.468;2023-05-10T02:32:43;11.80;70.90
32640;DHT22;19049;52.524;11.468;2023-05-10T02:35:10;12.40;58.50
32640;DHT22;19049;52.524;11.468;2023-05-10T02:37:37;12.60;72.60
32640;DHT22;19049;52.524;11.468;2023-05-10T02:40:04;12.00;72.60
32640;DHT22;19049;52.524;11.468;2023-05-10T02:42:33;12.20;56.90
32640;DHT22;19049;52.524;11.468;2023-05-10T02:45:02;12.00;73.60
32640;DHT22;19049;52.524;11.468;2023-05-10T02:47:29;12.00;74.60
32640;DHT22;19049;52.524;11.468;2023-05-10T02:49:55;12.60;64.20
32640;DHT22;19049;52.524;11.468;2023-05-10T02:52:27;12.00;80.40
32640;DHT22;19049;52.524;11.468;2023-05-10T02:55:01;11.60;74.90
32640;DHT22;19049;52.524;11.468;2023-05-10T02:57:31;13.00;71.50
32640;DHT22;19049;52.524;11.468;2023-05-10T03:02:25;12.00;70.60
32640;DHT22;19049;52.524;11.468;2023-05-10T03:04:51;11.80;79.80
32640;DHT22;19049;52.524;11.468;2023-05-10T03:07:17;11.20;71.90
32640;DHT22;19049;52.524;11.468;2023-05-10T03:09:44;11.70;72.70
32640;DHT22;19049;52.524;11.468;2023-05-10T03:14:51;11.40;75.70
32640;DHT22;19049;52.524;11.468;2023-05-10T03:17:47;11.80;76.50
32640;DHT22;19049;52.524;11.468;2023-05-10T03:20:29;11.60;73.80
32640;DHT22;19049;52.524;11.468;2023-05-10T03:23:27;11.90;58.80
32640;DHT22;19049;52.524;11.468;2023-05-10T03:25:50;11.90;77.60
32640;DHT22;19049;52.524;11.468;2023-05-10T03:28:17;11.80;76.60
32640;DHT22;19049;52.524;11.468;2023-05-10T03:30:43;11.40;61.20
32640;DHT22;19049;52.524;11.468;2023-05-10T03:33:09;12.40;61.80
32640;DHT22;19049;52.524;11.468;2023-05-10T03:35:36;11.90;77.60
32640;DHT22;19049;52.524;11.468;2023-05-10T03:38:01;11.70;65.70
32640;DHT22;19049;52.524;11.468;2023-05-10T03:42:55;11.90;59.20
32640;DHT22;19049;52.524;11.468;2023-05-10T04:14:34;12.40;71.50
32640;DHT22;19049;52.524;11.468;2023-05-10T04:19:32;12.60;60.50
32640;DHT22;19049;52.524;11.468;2023-05-10T04:24:24;12.40;64.10
32640;DHT22;19049;52.524;11.468;2023-05-10T04:26:49;12.90;86.00
32640;DHT22;19049;52.524;11.468;2023-05-10T04:29:15;13.60;67.90
32640;DHT22;19049;52.524;11.468;2023-05-10T04:31:41;13.40;76.40
32640;DHT22;19049;52.524;11.468;2023-05-10T04:36:32;13.60;67.30
32640;DHT22;19049;52.524;11.468;2023-05-10T04:58:30;13.70;61.80
32640;DHT22;19049;52.524;11.468;2023-05-10T05:08:14;14.70;75.40
32640;DHT22;19049;52.524;11.468;2023-05-10T05:10:40;14.50;74.50
32640;DHT22;19049;52.524;11.468;2023-05-10T05:22:49;15.10;73.80
32640;DHT22;19049;52.524;11.468;2023-05-10T05:25:15;14.50;73.40
32640;DHT22;19049;52.524;11.468;2023-05-10T05:30:07;14.90;70.40
32640;DHT22;19049;52.524;11.468;2023-05-10T05:32:33;15.40;76.50
32640;DHT22;19049;52.524;11.468;2023-05-10T05:44:44;16.70;75.60
32640;DHT22;19049;52.524;11.468;2023-05-10T05:47:10;16.10;73.30
32640;DHT22;19049;52.524;11.468;2023-05-10T05:52:03;16.60;57.50
32640;DHT22;19049;52.524;11.468;2023-05-10T05:56:59;17.60;70.10
32640;DHT22;19049;52.524;11.468;2023-05-10T05:59:25;17.40;70.40
32640;DHT22;19049;52.524;11.468;2023-05-10T06:01:51;17.00;69.20
32640;DHT22;19049;52.524;11.468;2023-05-10T06:06:43;16.90;68.00
32640;DHT22;19049;52.524;11.468;2023-05-10T06:09:09;18.30;68.10
32640;DHT22;19049;52.524;11.468;2023-05-10T06:11:35;16.60;67.00
32640;DHT22;19049;52.524;11.468;2023-05-10T06:14:01;17.80;55.00
32640;DHT22;19049;52.524;11.468;2023-05-10T06:16:27;18.70;69.30
32640;DHT22;19049;52.524;11.468;2023-05-10T06:18:53;18.20;68.70
32640;DHT22;19049;52.524;11.468;2023-05-10T06:21:19;18.80;68.70
32640;DHT22;19049;52.524;11.468;2023-05-10T06:23:44;18.40;66.50
32640;DHT22;19049;52.524;11.468;2023-05-10T06:31:05;19.20;64.80
32640;DHT22;19049;52.524;11.468;2023-05-10T06:33:32;18.70;64.30
32640;DHT22;19049;52.524;11.468;2023-05-10T06:48:08;19.60;56.20
32640;DHT22;19049;52.524;11.468;2023-05-10T06:57:53;20.10;63.80
32640;DHT22;19049;52.524;11.468;2023-05-10T07:00:19;20.20;63.50
32640;DHT22;19049;52.524;11.468;2023-05-10T07:02:45;19.90;62.60
32640;DHT22;19049;52.524;11.468;2023-05-10T07:05:12;20.30;63.10
32640;DHT22;19049;52.524;11.468;2023-05-10T07:07:38;19.80;62.30
32640;DHT22;19049;52.524;11.468;2023-05-10T07:10:03;21.10;61.90
32640;DHT22;19049;52.524;11.468;2023-05-10T07:14:55;21.30;60.30
32640;DHT22;19049;52.524;11.468;2023-05-10T07:17:21;20.30;59.40
32640;DHT22;19049;52.524;11.468;2023-05-10T07:49:00;21.00;60.10
32640;DHT22;19049;52.524;11.468;2023-05-10T07:51:26;21.10;60.00
32640;DHT22;19049;52.524;11.468;2023-05-10T07:56:27;20.90;60.70
32640;DHT22;19049;52.524;11.468;2023-05-10T07:59:02;21.60;50.30
32640;DHT22;19049;52.524;11.468;2023-05-10T08:01:33;22.20;49.10
32640;DHT22;19049;52.524;11.468;2023-05-10T08:03:59;22.90;51.60
32640;DHT22;19049;52.524;11.468;2023-05-10T08:08:55;22.70;48.40
32640;DHT22;19049;52.524;11.468;2023-05-10T08:11:21;23.80;62.60
32640;DHT22;19049;52.524;11.468;2023-05-10T08:13:48;23.20;49.00
32640;DHT22;19049;52.524;11.468;2023-05-10T08:16:14;23.40;58.10
32640;DHT22;19049;52.524;11.468;2023-05-10T08:21:05;24.60;58.10
32640;DHT22;19049;52.524;11.468;2023-05-10T08:23:31;23.90;47.70
32640;DHT22;19049;52.524;11.468;2023-05-10T08:25:57;24.00;46.20
32640;DHT22;19049;52.524;11.468;2023-05-10T08:28:23;24.60;58.20
32640;DHT22;19049;52.524;11.468;2023-05-10T08:30:50;24.00;47.30
32640;DHT22;19049;52.524;11.468;2023-05-10T08:33:17;24.10;47.00
32640;DHT22;19049;52.524;11.468;2023-05-10T08:35:42;24.30;46.70
32640;DHT22;19049;52.524;11.468;2023-05-10T08:38:08;24.30;46.60
32640;DHT22;19049;52.524;11.468;2023-05-10T08:40:34;24.40;45.90
32640;DHT22;19049;52.524;11.468;2023-05-10T08:43:08;24.40;45.60
32640;DHT22;19049;52.524;11.468;2023-05-10T08:45:39;23.40;53.20
32640;DHT22;19049;52.524;11.468;2023-05-10T08:48:06;23.90;44.50
32640;DHT22;19049;52.524;11.468;2023-05-10T08:50:37;24.50;48.00
32640;DHT22;19049;52.524;11.468;2023-05-10T08:53:10;23.80;55.90
32640;DHT22;19049;52.524;11.468;2023-05-10T08:55:36;24.00;56.00
32640;DHT22;19049;52.524;11.468;2023-05-10T08:58:04;23.00;48.90
32640;DHT22;19049;52.524;11.468;2023-05-10T09:00:31;22.60;55.80
32640;DHT22;19049;52.524;11.468;2023-05-10T09:02:58;22.80;55.40
32640;DHT22;19049;52.524;11.468;2023-05-10T09:10:16;23.30;48.80
32640;DHT22;19049;52.524;11.468;2023-05-10T09:12:43;22.20;56.30
32640;DHT22;19049;52.524;11.468;2023-05-10T09:15:09;23.60;56.80
32640;DHT22;19049;52.524;11.468;2023-05-10T09:17:36;22.20;56.20
32640;DHT22;19049;52.524;11.468;2023-05-10T09:20:03;22.60;47.00
32640;DHT22;19049;52.524;11.468;2023-05-10T09:22:32;22.10;56.00
32640;DHT22;19049;52.524;11.468;2023-05-10T09:30:02;21.90;55.00
32640;DHT22;19049;52.524;11.468;2023-05-10T09:32:40;22.40;56.70
32640;DHT22;19049;52.524;11.468;2023-05-10T09:35:20;21.90;47.50
32640;DHT22;19049;52.524;11.468;2023-05-10T09:37:52;22.10;66.60
32640;DHT22;19049;52.524;11.468;2023-05-10T09:40:29;21.60;48.30
32640;DHT22;19049;52.524;11.468;2023-05-10T09:42:56;22.00;53.90
32640;DHT22;19049;52.524;11.468;2023-05-10T09:45:23;21.30;48.90
32640;DHT22;19049;52.524;11.468;2023-05-10T09:50:15;20.10;53.90
32640;DHT22;19049;52.524;11.468;2023-05-10T09:52:48;20.80;49.40
32640;DHT22;19049;52.524;11.468;2023-05-10T09:55:15;20.50;52.80
32640;DHT22;19049;52.524;11.468;2023-05-10T09:57:41;21.10;53.20
32640;DHT22;19049;52.524;11.468;2023-05-10T10:00:08;20.20;50.80
32640;DHT22;19049;52.524;11.468;2023-05-10T10:02:35;19.60;55.00
32640;DHT22;19049;52.524;11.468;2023-05-10T10:07:31;19.90;51.30
32640;DHT22;19049;52.524;11.468;2023-05-10T10:09:56;20.20;63.50
32640;DHT22;19049;52.524;11.468;2023-05-10T10:12:23;19.50;64.50
32640;DHT22;19049;52.524;11.468;2023-05-10T10:14:48;20.60;66.00
32640;DHT22;19049;52.524;11.468;2023-05-10T10:17:16;19.60;55.80
32640;DHT22;19049;52.524;11.468;2023-05-10T10:22:08;19.10;64.30
32640;DHT22;19049;52.524;11.468;2023-05-10T10:24:37;19.90;65.60
32640;DHT22;19049;52.524;11.468;2023-05-10T10:27:12;19.50;53.70
32640;DHT22;19049;52.524;11.468;2023-05-10T10:30:13;20.00;54.20
32640;DHT22;19049;52.524;11.468;2023-05-10T10:33:01;18.80;65.00
32640;DHT22;19049;52.524;11.468;2023-05-10T10:35:34;19.30;55.60
32640;DHT22;19049;52.524;11.468;2023-05-10T10:38:00;19.80;67.80
32640;DHT22;19049;52.524;11.468;2023-05-10T10:40:33;19.30;55.30
32640;DHT22;19049;52.524;11.468;2023-05-10T10:43:25;19.30;55.80
32640;DHT22;19049;52.524;11.468;2023-05-10T10:46:16;20.10;57.10
32640;DHT22;19049;52.524;11.468;2023-05-10T10:49:09;19.90;69.00
32640;DHT22;19049;52.524;11.468;2023-05-10T10:51:39;19.30;69.40
32640;DHT22;19049;52.524;11.468;2023-05-10T10:54:11;20.50;61.60
32640;DHT22;19049;52.524;11.468;2023-05-10T10:56:37;20.60;70.10
32640;DHT22;19049;52.524;11.468;2023-05-10T10:59:02;20.00;69.00
32640;DHT22;19049;52.524;11.468;2023-05-10T11:01:33;19.80;68.60
32640;DHT22;19049;52.524;11.468;2023-05-10T11:06:33;20.00;56.70
32640;DHT22;19049;52.524;11.468;2023-05-10T11:09:09;19.60;68.70
32640;DHT22;19049;52.524;11.468;2023-05-10T11:11:36;19.20;68.60
32640;DHT22;19049;52.524;11.468;2023-05-10T11:14:06;19.90;56.90
32640;DHT22;19049;52.524;11.468;2023-05-10T11:16:43;19.90;56.30
32640;DHT22;19049;52.524;11.468;2023-05-10T11:19:13;20.20;68.00
32640;DHT22;19049;52.524;11.468;2023-05-10T11:27:03;20.00;56.60
32640;DHT22;19049;52.524;11.468;2023-05-10T11:29:28;19.60;58.70
32640;DHT22;19049;52.524;11.468;2023-05-10T11:31:59;20.00;56.60
32640;DHT22;19049;52.524;11.468;2023-05-10T11:34:32;20.10;62.20
32640;DHT22;19049;52.524;11.468;2023-05-10T11:37:01;20.00;56.60
32640;DHT22;19049;52.524;11.468;2023-05-10T11:39:28;20.60;60.40
32640;DHT22;19049;52.524;11.468;2023-05-10T11:41:54;19.70;69.60
32640;DHT22;19049;52.524;11.468;2023-05-10T11:44:20;19.10;70.00
32640;DHT22;19049;52.524;11.468;2023-05-10T11:46:45;20.60;70.50
32640;DHT22;19049;52.524;11.468;2023-05-10T11:51:38;19.60;70.80
32640;DHT22;19049;52.524;11.468;2023-05-10T11:54:10;19.40;72.10
32640;DHT22;19049;52.524;11.468;2023-05-10T11:56:37;20.50;60.30
32640;DHT22;19049;52.524;11.468;2023-05-10T12:01:30;20.70;71.70
32640;DHT22;19049;52.524;11.468;2023-05-10T12:03:57;20.10;70.80
32640;DHT22;19049;52.524;11.468;2023-05-10T12:06:27;21.10;64.30
32640;DHT22;19049;52.524;11.468;2023-05-10T12:08:53;20.90;71.20
32640;DHT22;19049;52.524;11.468;2023-05-10T12:11:19;20.90;58.10
32640;DHT22;19049;52.524;11.468;2023-05-10T12:13:47;21.00;71.30
32640;DHT22;19049;52.524;11.468;2023-05-10T12:18:40;20.10;70.50
32640;DHT22;19049;52.524;11.468;2023-05-10T12:23:32;21.70;65.80
32640;DHT22;19049;52.524;11.468;2023-05-10T12:26:05;20.80;58.80
32640;DHT22;19049;52.524;11.468;2023-05-10T12:28:32;21.40;71.20
32640;DHT22;19049;52.524;11.468;2023-05-10T12:30:59;21.10;58.80
32640;DHT22;19049;52.524;11.468;2023-05-10T12:33:25;20.80;71.60
32640;DHT22;19049;52.524;11.468;2023-05-10T12:35:52;20.90;71.80
32640;DHT22;19049;52.524;11.468;2023-05-10T12:38:26;21.50;70.10
32640;DHT22;19049;52.524;11.468;2023-05-10T12:40:52;21.10;70.10
32640;DHT22;19049;52.524;11.468;2023-05-10T12:48:13;20.20;72.70
32640;DHT22;19049;52.524;11.468;2023-05-10T12:50:39;21.20;78.70
32640;DHT22;19049;52.524;11.468;2023-05-10T13:10:07;20.50;79.40
32640;DHT22;19049;52.524;11.468;2023-05-10T13:12:33;19.80;76.40
32640;DHT22;19049;52.524;11.468;2023-05-10T13:14:58;20.80;76.10
32640;DHT22;19049;52.524;11.468;2023-05-10T13:17:25;20.20;65.70
32640;DHT22;19049;52.524;11.468;2023-05-10T13:19:51;20.10;66.50
32640;DHT22;19049;52.524;11.468;2023-05-10T13:22:17;19.80;83.50
32640;DHT22;19049;52.524;11.468;2023-05-10T13:27:08;19.70;74.90
32640;DHT22;19049;52.524;11.468;2023-05-10T13:39:20;19.10;82.10
32640;DHT22;19049;52.524;11.468;2023-05-10T13:44:13;19.90;84.40
32640;DHT22;19049;52.524;11.468;2023-05-10T13:46:39;20.00;88.10
32640;DHT22;19049;52.524;11.468;2023-05-10T13:51:31;19.00;84.60
32640;DHT22;19049;52.524;11.468;2023-05-10T13:53:57;19.90;87.30
32640;DHT22;19049;52.524;11.468;2023-05-10T13:56:23;19.80;77.50
32640;DHT22;19049;52.524;11.468;2023-05-10T14:06:07;19.60;71.90
32640;DHT22;19049;52.524;11.468;2023-05-10T14:08:34;19.80;71.50
32640;DHT22;19049;52.524;11.468;2023-05-10T14:11:00;19.00;89.00
32640;DHT22;19049;52.524;11.468;2023-05-10T14:13:25;20.20;84.00
32640;DHT22;19049;52.524;11.468;2023-05-10T14:15:52;19.90;87.00
32640;DHT22;19049;52.524;11.468;2023-05-10T14:20:43;20.40;90.80
32640;DHT22;19049;52.524;11.468;2023-05-10T14:28:01;19.80;83.80
32640;DHT22;19049;52.524;11.468;2023-05-10T14:42:38;19.90;88.00
32640;DHT22;19049;52.524;11.468;2023-05-10T14:45:04;19.70;73.00
32640;DHT22;19049;52.524;11.468;2023-05-10T14:49:56;20.20;86.60
32640;DHT22;19049;52.524;11.468;2023-05-10T15:04:33;20.60;85.50
32640;DHT22;19049;52.524;11.468;2023-05-10T15:06:59;20.50;85.60
32640;DHT22;19049;52.524;11.468;2023-05-10T15:11:53;20.30;85.70
32640;DHT22;19049;52.524;11.468;2023-05-10T15:14:18;20.90;86.40
32640;DHT22;19049;52.524;11.468;2023-05-10T15:24:07;20.70;73.70
32640;DHT22;19049;52.524;11.468;2023-05-10T15:28:59;20.60;85.70
32640;DHT22;19049;52.524;11.468;2023-05-10T15:33:57;20.80;73.70
32640;DHT22;19049;52.524;11.468;2023-05-10T15:41:16;20.60;84.80
32640;DHT22;19049;52.524;11.468;2023-05-10T15:46:08;20.80;84.70
32640;DHT22;19049;52.524;11.468;2023-05-10T15:50:59;21.00;84.80
32640;DHT22;19049;52.524;11.468;2023-05-10T15:55:51;21.60;84.70
32640;DHT22;19049;52.524;11.468;2023-05-10T16:05:35;21.40;78.80
32640;DHT22;19049;52.524;11.468;2023-05-10T16:10:27;21.00;77.20
32640;DHT22;19049;52.524;11.468;2023-05-10T16:12:55;21.40;85.20
32640;DHT22;19049;52.524;11.468;2023-05-10T16:17:47;19.90;78.60
32640;DHT22;19049;52.524;11.468;2023-05-10T16:29:58;21.40;84.50
32640;DHT22;19049;52.524;11.468;2023-05-10T16:32:24;20.30;83.80
32640;DHT22;19049;52.524;11.468;2023-05-10T16:34:50;21.20;84.30
32640;DHT22;19049;52.524;11.468;2023-05-10T16:37:17;20.50;84.30
32640;DHT22;19049;52.524;11.468;2023-05-10T16:47:01;20.40;79.00
32640;DHT22;19049;52.524;11.468;2023-05-10T16:49:27;20.50;84.30
32640;DHT22;19049;52.524;11.468;2023-05-10T16:56:46;21.30;86.10
32640;DHT22;19049;52.524;11.468;2023-05-10T16:59:12;20.50;79.20
32640;DHT22;19049;52.524;11.468;2023-05-10T17:04:04;21.00;79.00
32640;DHT22;19049;52.524;11.468;2023-05-10T17:18:40;20.60;84.60
32640;DHT22;19049;52.524;11.468;2023-05-10T17:21:07;20.70;77.20
32640;DHT22;19049;52.524;11.468;2023-05-10T17:26:03;20.60;85.40
32640;DHT22;19049;52.524;11.468;2023-05-10T17:30:55;21.20;85.80
32640;DHT22;19049;52.524;11.468;2023-05-10T17:38:14;20.40;79.20
32640;DHT22;19049;52.524;11.468;2023-05-10T17:45:33;20.80;85.80
32640;DHT22;19049;52.524;11.468;2023-05-10T17:47:58;20.10;78.90
32640;DHT22;19049;52.524;11.468;2023-05-10T18:00:09;20.60;75.10
32640;DHT22;19049;52.524;11.468;2023-05-10T18:02:35;19.90;75.70
32640;DHT22;19049;52.524;11.468;2023-05-10T18:05:02;19.80;82.40
32640;DHT22;19049;52.524;11.468;2023-05-10T18:09:55;19.30;87.30
32640;DHT22;19049;52.524;11.468;2023-05-10T18:12:21;19.60;85.40
32640;DHT22;19049;52.524;11.468;2023-05-10T18:14:47;18.20;84.90
32640;DHT22;19049;52.524;11.468;2023-05-10T18:17:12;19.70;88.30
32640;DHT22;19049;52.524;11.468;2023-05-10T18:19:38;19.20;88.50
32640;DHT22;19049;52.524;11.468;2023-05-10T18:22:04;18.00;87.60
32640;DHT22;19049;52.524;11.468;2023-05-10T18:24:30;19.10;89.70
32640;DHT22;19049;52.524;11.468;2023-05-10T18:26:55;19.50;89.70
32640;DHT22;19049;52.524;11.468;2023-05-10T18:31:48;18.70;90.40
32640;DHT22;19049;52.524;11.468;2023-05-10T18:34:14;18.50;90.50
32640;DHT22;19049;52.524;11.468;2023-05-10T18:39:09;19.30;90.20
32640;DHT22;19049;52.524;11.468;2023-05-10T18:41:35;18.40;84.30
32640;DHT22;19049;52.524;11.468;2023-05-10T18:44:01;19.40;90.30
32640;DHT22;19049;52.524;11.468;2023-05-10T18:48:53;18.50;90.20
32640;DHT22;19049;52.524;11.468;2023-05-10T18:53:47;18.40;82.20
32640;DHT22;19049;52.524;11.468;2023-05-10T18:58:38;17.50;90.40
32640;DHT22;19049;52.524;11.468;2023-05-10T19:01:04;18.40;90.80
32640;DHT22;19049;52.524;11.468;2023-05-10T19:08:22;18.60;79.50
32640;DHT22;19049;52.524;11.468;2023-05-10T19:10:48;18.00;91.30
32640;DHT22;19049;52.524;11.468;2023-05-10T19:13:13;17.10;91.40
32640;DHT22;19049;52.524;11.468;2023-05-10T19:15:39;17.50;91.90
32640;DHT22;19049;52.524;11.468;2023-05-10T19:18:06;18.00;92.60
32640;DHT22;19049;52.524;11.468;2023-05-10T19:22:58;17.40;92.80
32640;DHT22;19049;52.524;11.468;2023-05-10T19:25:23;17.70;93.90
32640;DHT22;19049;52.524;11.468;2023-05-10T19:27:54;17.70;92.40
32640;DHT22;19049;52.524;11.468;2023-05-10T19:32:47;17.40;92.10
32640;DHT22;19049;52.524;11.468;2023-05-10T19:35:13;17.10;92.10
32640;DHT22;19049;52.524;11.468;2023-05-10T19:37:39;17.80;92.50
32640;DHT22;19049;52.524;11.468;2023-05-10T19:40:05;16.80;92.20
32640;DHT22;19049;52.524;11.468;2023-05-10T19:42:31;17.90;88.20
32640;DHT22;19049;52.524;11.468;2023-05-10T19:44:56;16.90;86.70
32640;DHT22;19049;52.524;11.468;2023-05-10T19:49:48;17.10;92.60
32640;DHT22;19049;52.524;11.468;2023-05-10T19:52:14;17.50;92.80
32640;DHT22;19049;52.524;11.468;2023-05-10T19:54:39;16.60;92.50
32640;DHT22;19049;52.524;11.468;2023-05-10T19:57:05;16.30;92.60
32640;DHT22;19049;52.524;11.468;2023-05-10T19:59:31;15.90;91.30
32640;DHT22;19049;52.524;11.468;2023-05-10T20:01:57;16.70;91.70
32640;DHT22;19049;52.524;11.468;2023-05-10T20:04:22;15.80;92.70
32640;DHT22;19049;52.524;11.468;2023-05-10T20:06:48;16.20;93.00
32640;DHT22;19049;52.524;11.468;2023-05-10T20:09:13;16.60;93.20
32640;DHT22;19049;52.524;11.468;2023-05-10T20:11:40;16.70;93.20
32640;DHT22;19049;52.524;11.468;2023-05-10T20:18:57;16.20;93.50
32640;DHT22;19049;52.524;11.468;2023-05-10T20:23:50;16.40;94.00
32640;DHT22;19049;52.524;11.468;2023-05-10T20:28:42;15.90;94.00
32640;DHT22;19049;52.524;11.468;2023-05-10T20:33:34;15.50;87.60
32640;DHT22;19049;52.524;11.468;2023-05-10T20:35:59;16.80;94.50
32640;DHT22;19049;52.524;11.468;2023-05-10T20:38:25;16.40;94.30
32640;DHT22;19049;52.524;11.468;2023-05-10T20:45:44;15.60;91.70
32640;DHT22;19049;52.524;11.468;2023-05-10T20:48:10;16.40;95.30
32640;DHT22;19049;52.524;11.468;2023-05-10T20:50:36;15.20;94.50
32640;DHT22;19049;52.524;11.468;2023-05-10T20:53:01;15.40;94.60
32640;DHT22;19049;52.524;11.468;2023-05-10T20:55:27;15.80;95.10
32640;DHT22;19049;52.524;11.468;2023-05-10T20:57:53;16.00;95.30
32640;DHT22;19049;52.524;11.468;2023-05-10T21:02:45;15.90;95.50
32640;DHT22;19049;52.524;11.468;2023-05-10T21:05:11;15.90;94.70
32640;DHT22;19049;52.524;11.468;2023-05-10T21:07:36;15.90;95.60
32640;DHT22;19049;52.524;11.468;2023-05-10T21:10:04;14.60;95.40
32640;DHT22;19049;52.524;11.468;2023-05-10T21:12:29;14.70;95.40
32640;DHT22;19049;52.524;11.468;2023-05-10T21:14:55;15.60;95.70
32640;DHT22;19049;52.524;11.468;2023-05-10T21:17:21;15.70;95.80
32640;DHT22;19049;52.524;11.468;2023-05-10T21:27:04;15.30;92.00
32640;DHT22;19049;52.524;11.468;2023-05-10T21:29:31;14.60;95.90
32640;DHT22;19049;52.524;11.468;2023-05-10T21:31:57;15.40;96.40
32640;DHT22;19049;52.524;11.468;2023-05-10T21:36:49;15.60;96.00
32640;DHT22;19049;52.524;11.468;2023-05-10T21:39:15;15.60;93.20
32640;DHT22;19049;52.524;11.468;2023-05-10T21:41:41;15.40;92.40
32640;DHT22;19049;52.524;11.468;2023-05-10T21:46:32;15.40;91.30
32640;DHT22;19049;52.524;11.468;2023-05-10T21:48:58;15.80;96.40
32640;DHT22;19049;52.524;11.468;2023-05-10T21:53:49;15.50;96.50
32640;DHT22;19049;52.524;11.468;2023-05-10T21:56:15;15.30;96.40
32640;DHT22;19049;52.524;11.468;2023-05-10T21:58:41;14.80;96.30
32640;DHT22;19049;52.524;11.468;2023-05-10T22:03:32;15.70;95.30
32640;DHT22;19049;52.524;11.468;2023-05-10T22:05:58;14.60;96.70
32640;DHT22;19049;52.524;11.468;2023-05-10T22:08:24;14.70;94.00
32640;DHT22;19049;52.524;11.468;2023-05-10T22:10:50;14.30;96.90
32640;DHT22;19049;52.524;11.468;2023-05-10T22:13:16;14.70;96.90
32640;DHT22;19049;52.524;11.468;2023-05-10T22:15:42;15.20;96.90
32640;DHT22;19049;52.524;11.468;2023-05-10T22:18:08;14.70;97.00
32640;DHT22;19049;52.524;11.468;2023-05-10T22:20:34;15.20;97.30
32640;DHT22;19049;52.524;11.468;2023-05-10T22:22:59;15.00;97.30
32640;DHT22;19049;52.524;11.468;2023-05-10T22:25:25;14.60;97.20
32640;DHT22;19049;52.524;11.468;2023-05-10T22:27:51;14.50;97.30
32640;DHT22;19049;52.524;11.468;2023-05-10T22:30:17;14.90;97.40
32640;DHT22;19049;52.524;11.468;2023-05-10T22:32:43;15.40;97.70
32640;DHT22;19049;52.524;11.468;2023-05-10T22:35:09;14.90;97.70
32640;DHT22;19049;52.524;11.468;2023-05-10T22:37:35;14.80;97.40
32640;DHT22;19049;52.524;11.468;2023-05-10T22:40:00;15.60;98.00
32640;DHT22;19049;52.524;11.468;2023-05-10T22:42:26;15.20;95.10
32640;DHT22;19049;52.524;11.468;2023-05-10T22:44:52;14.40;97.70
32640;DHT22;19049;52.524;11.468;2023-05-10T22:49:43;14.40;97.80
32640;DHT22;19049;52.524;11.468;2023-05-10T22:52:09;14.90;98.00
32640;DHT22;19049;52.524;11.468;2023-05-10T22:59:27;14.90;91.90
32640;DHT22;19049;52.524;11.468;2023-05-10T23:01:53;14.70;93.20
32640;DHT22;19049;52.524;11.468;2023-05-10T23:04:18;14.20;98.10
32640;DHT22;19049;52.524;11.468;2023-05-10T23:11:36;14.70;98.50
32640;DHT22;19049;52.524;11.468;2023-05-10T23:14:02;14.10;98.60
32640;DHT22;19049;52.524;11.468;2023-05-10T23:16:28;14.20;98.80
32640;DHT22;19049;52.524;11.468;2023-05-10T23:18:54;14.90;96.10
32640;DHT22;19049;52.524;11.468;2023-05-10T23:21:20;15.30;92.70
32640;DHT22;19049;52.524;11.468;2023-05-10T23:28:38;15.20;96.60
32640;DHT22;19049;52.524;11.468;2023-05-10T23:33:29;14.60;95.10